Time;durP1;ratioP1;P1;durP2;ratioP2;P2;SDS_P1;SDS_P2;PMS_P1;PMS_P2;Temp;Humidity;BMP_temperature;BMP_pressure;BME280_temperature;BME280_humidity;BME280_pressure;Samples;Min_cycle;Max_cycle;Signal;HPM_P1;HPM_P2
2023/10/08 00:07:24;;;;;;;5.22;4.20;;;;;;;22.52;44.69;100380.75;41696463;28;20041;-66
2023/10/08 00:27:24;;;;;;;5.80;4.13;;;;;;;22.58;44.65;100374.97;41693987;28;20473;-65
2023/10/08 00:47:27;;;;;;;6.30;4.10;;;;;;;22.58;44.78;100351.22;41712371;28;20057;-66
2023/10/08 01:07:30;;;;;;;4.72;4.07;;;;;;;22.55;44.44;100344.41;41720480;28;20053;-66
2023/10/08 01:27:34;;;;;;;5.13;3.78;;;;;;;22.54;44.39;100305.81;41719248;28;20518;-66
2023/10/08 01:47:35;;;;;;;4.95;3.85;;;;;;;22.43;44.08;100266.28;41717354;28;20478;-66
2023/10/08 02:07:36;;;;;;;5.30;3.40;;;;;;;22.53;43.94;100282.16;41711637;28;20190;-65
2023/10/08 02:27:37;;;;;;;4.40;3.50;;;;;;;22.52;44.09;100270.78;41706230;28;20513;-65
2023/10/08 02:47:38;;;;;;;4.28;3.05;;;;;;;22.32;44.09;100214.41;41704048;28;20052;-66
2023/10/08 03:07:39;;;;;;;4.65;3.25;;;;;;;22.47;44.39;100230.78;41697909;28;20064;-66
2023/10/08 03:27:41;;;;;;;4.05;3.35;;;;;;;22.46;44.45;100230.88;41700193;28;20045;-67
2023/10/08 03:47:46;;;;;;;4.18;2.97;;;;;;;22.37;44.57;100187.63;41698192;28;20115;-66
2023/10/08 04:28:00;;;;;;;4.43;3.30;;;;;;;22.44;44.18;100177.44;41726742;28;20517;-65
2023/10/08 04:48:00;;;;;;;3.63;2.55;;;;;;;22.31;44.45;100162.59;41719926;28;20052;-67
2023/10/08 05:08:01;;;;;;;4.45;2.67;;;;;;;22.40;44.42;100174.22;41721425;28;20068;-65
2023/10/08 05:28:09;;;;;;;3.60;2.70;;;;;;;22.42;44.28;100196.00;41709714;28;20083;-65
2023/10/08 05:48:15;;;;;;;4.05;3.00;;;;;;;22.35;44.26;100197.47;41713353;28;20582;-66
2023/10/08 06:08:21;;;;;;;2.88;2.35;;;;;;;22.38;44.09;100216.53;41698596;28;20053;-65
2023/10/08 06:28:25;;;;;;;4.30;2.70;;;;;;;22.25;44.26;100220.34;41708653;28;20045;-66
2023/10/08 06:48:25;;;;;;;5.13;2.65;;;;;;;22.22;44.44;100216.16;41700546;28;20034;-65
2023/10/08 07:08:35;;;;;;;6.07;3.20;;;;;;;22.44;44.18;100241.56;41698219;28;20053;-66
2023/10/08 07:28:35;;;;;;;4.68;2.80;;;;;;;22.46;44.27;100236.16;41696149;28;20136;-66
2023/10/08 07:48:42;;;;;;;4.05;2.72;;;;;;;22.50;44.41;100250.78;41700329;28;20037;-65
2023/10/08 08:08:44;;;;;;;4.18;2.60;;;;;;;22.52;44.48;100225.06;41704139;28;20049;-65
2023/10/08 08:28:46;;;;;;;3.60;2.70;;;;;;;22.60;44.14;100267.47;41698449;28;20395;-65
2023/10/08 08:48:49;;;;;;;4.10;2.90;;;;;;;22.66;44.38;100258.22;41698835;28;20191;-66
2023/10/08 09:08:49;;;;;;;3.80;2.95;;;;;;;22.76;44.13;100292.56;41721566;28;20049;-66
2023/10/08 09:28:51;;;;;;;7.38;3.35;;;;;;;22.75;44.30;100330.50;41718719;28;20433;-66
2023/10/08 09:48:59;;;;;;;5.00;3.40;;;;;;;22.69;44.58;100364.38;41709578;28;20446;-64
2023/10/08 10:09:00;;;;;;;4.18;3.20;;;;;;;22.69;44.45;100418.94;41715398;28;20037;-65
2023/10/08 10:29:15;;;;;;;4.10;3.00;;;;;;;22.68;44.54;100448.97;41710973;28;20080;-65
2023/10/08 10:49:22;;;;;;;3.95;2.83;;;;;;;22.71;44.43;100448.69;41703519;28;20336;-64
2023/10/08 11:09:35;;;;;;;4.05;2.88;;;;;;;22.63;44.54;100459.91;41698927;28;20099;-65
2023/10/08 11:29:38;;;;;;;4.65;2.70;;;;;;;22.69;44.53;100493.69;41697250;28;20045;-66
2023/10/08 11:49:46;;;;;;;4.55;2.60;;;;;;;22.65;44.70;100509.91;41697099;28;20046;-66
2023/10/08 12:09:48;;;;;;;4.57;2.33;;;;;;;22.67;44.41;100566.06;41693314;28;20073;-65
2023/10/08 12:29:48;;;;;;;3.72;2.45;;;;;;;22.61;44.53;100599.06;41717165;28;20049;-66
2023/10/08 12:49:49;;;;;;;4.10;2.00;;;;;;;22.63;44.23;100597.13;41735437;28;20065;-66
2023/10/08 13:09:49;;;;;;;2.88;1.95;;;;;;;22.63;43.96;100618.25;41732957;28;20118;-65
2023/10/08 13:29:51;;;;;;;1.90;1.60;;;;;;;22.52;43.90;100631.44;41722345;28;20379;-66
2023/10/08 13:49:53;;;;;;;1.90;1.70;;;;;;;22.61;44.14;100682.69;41711669;28;20045;-67
2023/10/08 14:09:53;;;;;;;1.98;1.50;;;;;;;22.60;43.87;100691.56;41706297;28;20119;-65
2023/10/08 14:30:00;;;;;;;2.65;1.50;;;;;;;22.54;43.90;100716.63;41706722;28;20106;-66
2023/10/08 14:50:04;;;;;;;1.60;1.33;;;;;;;22.56;43.56;100762.22;41707644;28;20048;-66
2023/10/08 15:10:08;;;;;;;4.03;1.58;;;;;;;22.41;43.88;100777.44;41708927;28;20049;-66
2023/10/08 15:30:12;;;;;;;9.27;1.90;;;;;;;22.64;43.85;100828.47;41650984;28;20056;-68
2023/10/08 15:50:13;;;;;;;8.18;1.95;;;;;;;22.77;45.53;100846.81;41668240;28;20052;-65
2023/10/08 16:10:16;;;;;;;12.48;2.53;;;;;;;22.65;46.20;100848.59;41667771;28;20069;-66
2023/10/08 16:30:28;;;;;;;9.23;3.20;;;;;;;22.94;46.79;100910.69;41690520;28;20570;-66
2023/10/08 16:50:32;;;;;;;12.20;3.75;;;;;;;23.02;46.90;100942.63;41705227;28;20052;-74
2023/10/08 17:10:33;;;;;;;17.77;4.88;;;;;;;23.10;47.05;100949.97;41746511;28;20057;-66
2023/10/08 17:30:34;;;;;;;22.90;7.57;;;;;;;23.23;47.57;101011.53;41720104;28;20066;-67
2023/10/08 17:50:37;;;;;;;12.68;6.30;;;;;;;23.21;47.74;101017.88;41712881;28;20494;-70
2023/10/08 18:10:41;;;;;;;14.13;6.10;;;;;;;23.13;48.34;101053.63;41733719;28;20041;-67
2023/10/08 18:30:43;;;;;;;11.75;6.55;;;;;;;23.02;48.63;101079.97;41670412;28;20088;-69
2023/10/08 18:50:44;;;;;;;15.32;7.25;;;;;;;22.86;48.24;101131.31;41669757;28;20041;-66
2023/10/08 19:10:45;;;;;;;13.80;6.50;;;;;;;22.84;48.68;101137.66;41659108;28;20044;-66
2023/10/08 19:30:48;;;;;;;10.55;5.97;;;;;;;22.82;49.63;101177.34;41650629;28;20528;-68
2023/10/08 19:50:51;;;;;;;12.90;5.85;;;;;;;22.68;49.44;101162.50;41678629;28;20397;-66
2023/10/08 20:10:52;;;;;;;12.85;5.85;;;;;;;22.68;49.36;101183.63;41678966;28;20037;-68
2023/10/08 20:30:53;;;;;;;6.32;4.90;;;;;;;22.55;49.22;101202.13;41676633;28;20488;-66
2023/10/08 20:50:56;;;;;;;7.93;4.85;;;;;;;22.58;49.08;101216.91;41673217;28;20042;-66
2023/10/08 21:10:57;;;;;;;8.48;4.68;;;;;;;22.65;48.90;101267.47;41698298;28;20072;-68
2023/10/08 21:31:06;;;;;;;6.20;3.95;;;;;;;22.47;48.65;101270.47;41701510;28;20110;-66
2023/10/08 21:51:10;;;;;;;5.53;3.85;;;;;;;22.44;48.34;101269.81;41711134;28;20037;-67
2023/10/08 22:11:12;;;;;;;5.00;3.50;;;;;;;22.44;48.53;101306.78;41690783;28;20042;-67
2023/10/08 22:31:14;;;;;;;3.70;3.17;;;;;;;22.29;48.36;101306.81;41675226;28;20049;-67
2023/10/08 22:51:25;;;;;;;3.47;2.95;;;;;;;22.38;48.01;101315.94;41683073;28;20059;-65
2023/10/08 23:11:27;;;;;;;4.20;2.70;;;;;;;22.36;47.82;101333.63;41683446;28;20127;-65
2023/10/08 23:31:28;;;;;;;3.38;2.60;;;;;;;22.12;47.97;101309.72;41669949;28;20087;-67
2023/10/08 23:51:32;;;;;;;3.22;2.63;;;;;;;22.31;48.07;101327.81;41677893;28;20136;-68
